GSOL EGHR-EGHH
Flight info
| Callsign | GSOL |
|---|---|
| Flight time | 0h 30m |
| Altitude | 3000 |
| Route | ZZZZZZZZZ |
| Aircraft | PA24/L-SDE3FGHIRWY/LB1 |
Departure
| Time | 2026-04-26 09:21 |
|---|---|
| Airport | Goodwood Aerodrome (EGHR) |
Arrival
| Time | 2026-04-26 09:51 |
|---|---|
| Airport | Bournemouth Airport (EGHH) |
| Time | Latitude | Longitude | Altitude | Speed | Heading |
|---|---|---|---|---|---|
| 2026-04-26 09:13 | 50.85805 | -0.75574 | 109 ft | 0 kts | 70° |
| 2026-04-26 09:18 | 50.85827 | -0.75571 | 104 ft | 8 kts | 329° |
| 2026-04-26 09:18 | 50.85895 | -0.75642 | 104 ft | 14 kts | 327° |
| 2026-04-26 09:18 | 50.85968 | -0.75744 | 104 ft | 16 kts | 314° |
| 2026-04-26 09:18 | 50.86045 | -0.75888 | 102 ft | 16 kts | 305° |
| 2026-04-26 09:19 | 50.86119 | -0.76009 | 104 ft | 18 kts | 320° |
| 2026-04-26 09:19 | 50.86224 | -0.76154 | 104 ft | 16 kts | 303° |
| 2026-04-26 09:19 | 50.86246 | -0.76240 | 104 ft | 3 kts | 287° |
| 2026-04-26 09:19 | 50.86253 | -0.76277 | 105 ft | 8 kts | 286° |
| 2026-04-26 09:20 | 50.86248 | -0.76352 | 105 ft | 7 kts | 224° |
| 2026-04-26 09:20 | 50.86160 | -0.76256 | 105 ft | 45 kts | 143° |
| 2026-04-26 09:20 | 50.85851 | -0.75812 | 232 ft | 66 kts | 145° |
| 2026-04-26 09:20 | 50.85364 | -0.75729 | 448 ft | 78 kts | 185° |
| 2026-04-26 09:21 | 50.84901 | -0.76275 | 676 ft | 95 kts | 231° |
| 2026-04-26 09:21 | 50.84697 | -0.77307 | 995 ft | 105 kts | 259° |
| 2026-04-26 09:21 | 50.84571 | -0.78507 | 1329 ft | 111 kts | 257° |
| 2026-04-26 09:21 | 50.84457 | -0.79665 | 1627 ft | 107 kts | 265° |
| 2026-04-26 09:22 | 50.84448 | -0.80897 | 1812 ft | 115 kts | 271° |
| 2026-04-26 09:22 | 50.84587 | -0.82168 | 1990 ft | 120 kts | 279° |
| 2026-04-26 09:22 | 50.84717 | -0.83492 | 2238 ft | 125 kts | 273° |
| 2026-04-26 09:22 | 50.84680 | -0.84862 | 2462 ft | 125 kts | 252° |
| 2026-04-26 09:23 | 50.84274 | -0.86056 | 2619 ft | 124 kts | 226° |
| 2026-04-26 09:23 | 50.83644 | -0.86947 | 2809 ft | 121 kts | 203° |
| 2026-04-26 09:23 | 50.82925 | -0.87712 | 2865 ft | 127 kts | 210° |
| 2026-04-26 09:23 | 50.82184 | -0.88498 | 2945 ft | 130 kts | 208° |
| 2026-04-26 09:24 | 50.81447 | -0.89313 | 3075 ft | 130 kts | 206° |
| 2026-04-26 09:24 | 50.80674 | -0.90074 | 3163 ft | 130 kts | 203° |
| 2026-04-26 09:24 | 50.79917 | -0.90855 | 3209 ft | 134 kts | 213° |
| 2026-04-26 09:24 | 50.79158 | -0.91804 | 3212 ft | 141 kts | 213° |
| 2026-04-26 09:25 | 50.78383 | -0.92759 | 3207 ft | 143 kts | 213° |
| 2026-04-26 09:25 | 50.77593 | -0.93733 | 3204 ft | 144 kts | 213° |
| 2026-04-26 09:25 | 50.76798 | -0.94704 | 3199 ft | 146 kts | 213° |
| 2026-04-26 09:25 | 50.76006 | -0.95698 | 3197 ft | 146 kts | 213° |
| 2026-04-26 09:26 | 50.75215 | -0.96705 | 3198 ft | 145 kts | 212° |
| 2026-04-26 09:26 | 50.74563 | -0.97905 | 3196 ft | 146 kts | 232° |
| 2026-04-26 09:26 | 50.74027 | -0.99262 | 3193 ft | 149 kts | 233° |
| 2026-04-26 09:26 | 50.73490 | -1.00675 | 3195 ft | 150 kts | 233° |
| 2026-04-26 09:27 | 50.72958 | -1.02078 | 3196 ft | 150 kts | 233° |
| 2026-04-26 09:27 | 50.72428 | -1.03500 | 3197 ft | 149 kts | 237° |
| 2026-04-26 09:27 | 50.72169 | -1.04388 | 3198 ft | 150 kts | 243° |
| 2026-04-26 09:27 | 50.71907 | -1.05530 | 3197 ft | 151 kts | 246° |
| 2026-04-26 09:28 | 50.71524 | -1.07071 | 3201 ft | 151 kts | 240° |
| 2026-04-26 09:28 | 50.70970 | -1.08453 | 3203 ft | 150 kts | 225° |
| 2026-04-26 09:28 | 50.70201 | -1.09543 | 3200 ft | 147 kts | 208° |
| 2026-04-26 09:28 | 50.69292 | -1.10239 | 3200 ft | 145 kts | 193° |
| 2026-04-26 09:29 | 50.68339 | -1.10677 | 3194 ft | 142 kts | 190° |
| 2026-04-26 09:29 | 50.67397 | -1.11155 | 3194 ft | 140 kts | 196° |
| 2026-04-26 09:29 | 50.66530 | -1.11839 | 3193 ft | 142 kts | 206° |
| 2026-04-26 09:29 | 50.65725 | -1.12793 | 3191 ft | 145 kts | 216° |
| 2026-04-26 09:30 | 50.65014 | -1.13901 | 3190 ft | 146 kts | 221° |
| 2026-04-26 09:30 | 50.64323 | -1.15085 | 3190 ft | 146 kts | 220° |
| 2026-04-26 09:30 | 50.63591 | -1.16201 | 3192 ft | 145 kts | 216° |
| 2026-04-26 09:30 | 50.62811 | -1.17202 | 3191 ft | 146 kts | 212° |
| 2026-04-26 09:31 | 50.61982 | -1.18130 | 3191 ft | 145 kts | 209° |
| 2026-04-26 09:31 | 50.61142 | -1.19007 | 3191 ft | 147 kts | 207° |
| 2026-04-26 09:31 | 50.60297 | -1.19936 | 3193 ft | 148 kts | 213° |
| 2026-04-26 09:31 | 50.59600 | -1.21161 | 3180 ft | 153 kts | 226° |
| 2026-04-26 09:32 | 50.59271 | -1.22694 | 3168 ft | 153 kts | 269° |
| 2026-04-26 09:32 | 50.59643 | -1.24263 | 3190 ft | 156 kts | 300° |
| 2026-04-26 09:32 | 50.60056 | -1.25839 | 3200 ft | 161 kts | 287° |
| 2026-04-26 09:32 | 50.60386 | -1.27535 | 3196 ft | 160 kts | 286° |
| 2026-04-26 09:33 | 50.60721 | -1.29206 | 3189 ft | 161 kts | 286° |
| 2026-04-26 09:33 | 50.61062 | -1.30886 | 3189 ft | 160 kts | 287° |
| 2026-04-26 09:33 | 50.61405 | -1.32573 | 3189 ft | 162 kts | 286° |
| 2026-04-26 09:33 | 50.61743 | -1.34249 | 3192 ft | 162 kts | 287° |
| 2026-04-26 09:34 | 50.62083 | -1.35939 | 3196 ft | 161 kts | 287° |
| 2026-04-26 09:34 | 50.62428 | -1.37636 | 3201 ft | 166 kts | 286° |
| 2026-04-26 09:34 | 50.62779 | -1.39377 | 3198 ft | 170 kts | 287° |
| 2026-04-26 09:34 | 50.63136 | -1.41148 | 3197 ft | 168 kts | 287° |
| 2026-04-26 09:35 | 50.63503 | -1.42914 | 3191 ft | 168 kts | 287° |
| 2026-04-26 09:35 | 50.63871 | -1.44648 | 3189 ft | 168 kts | 287° |
| 2026-04-26 09:35 | 50.64238 | -1.46385 | 3185 ft | 165 kts | 287° |
| 2026-04-26 09:35 | 50.64594 | -1.48091 | 3187 ft | 165 kts | 287° |
| 2026-04-26 09:36 | 50.64954 | -1.49825 | 3188 ft | 165 kts | 287° |
| 2026-04-26 09:36 | 50.65318 | -1.51522 | 3187 ft | 164 kts | 293° |
| 2026-04-26 09:36 | 50.66110 | -1.52747 | 3184 ft | 162 kts | 337° |
| 2026-04-26 09:36 | 50.67176 | -1.53217 | 3188 ft | 161 kts | 348° |
| 2026-04-26 09:37 | 50.68289 | -1.53412 | 3186 ft | 161 kts | 16° |
| 2026-04-26 09:37 | 50.69189 | -1.52537 | 3190 ft | 152 kts | 55° |
| 2026-04-26 09:37 | 50.69785 | -1.51193 | 3189 ft | 147 kts | 60° |
| 2026-04-26 09:37 | 50.70365 | -1.49854 | 3187 ft | 147 kts | 61° |
| 2026-04-26 09:38 | 50.70939 | -1.48508 | 3188 ft | 147 kts | 61° |
| 2026-04-26 09:38 | 50.71491 | -1.47171 | 3190 ft | 146 kts | 66° |
| 2026-04-26 09:38 | 50.71696 | -1.45625 | 3197 ft | 142 kts | 90° |
| 2026-04-26 09:38 | 50.71750 | -1.44098 | 3198 ft | 139 kts | 90° |
| 2026-04-26 09:39 | 50.71798 | -1.42582 | 3197 ft | 138 kts | 90° |
| 2026-04-26 09:39 | 50.71846 | -1.41071 | 3199 ft | 138 kts | 90° |
| 2026-04-26 09:39 | 50.71901 | -1.39550 | 3198 ft | 140 kts | 90° |
| 2026-04-26 09:39 | 50.71656 | -1.38090 | 3197 ft | 141 kts | 128° |
| 2026-04-26 09:40 | 50.70820 | -1.37355 | 3198 ft | 141 kts | 171° |
| 2026-04-26 09:40 | 50.69889 | -1.37754 | 3195 ft | 145 kts | 207° |
| 2026-04-26 09:40 | 50.69062 | -1.38724 | 3190 ft | 150 kts | 222° |
| 2026-04-26 09:40 | 50.68685 | -1.40235 | 3188 ft | 155 kts | 264° |
| 2026-04-26 09:41 | 50.68833 | -1.41933 | 3204 ft | 157 kts | 278° |
| 2026-04-26 09:41 | 50.69032 | -1.43625 | 3204 ft | 159 kts | 279° |
| 2026-04-26 09:41 | 50.69248 | -1.45357 | 3195 ft | 160 kts | 279° |
| 2026-04-26 09:41 | 50.69474 | -1.47080 | 3186 ft | 160 kts | 285° |
| 2026-04-26 09:42 | 50.70132 | -1.48441 | 3177 ft | 163 kts | 328° |
| 2026-04-26 09:42 | 50.71211 | -1.48875 | 3191 ft | 158 kts | 3° |
| 2026-04-26 09:42 | 50.72306 | -1.48869 | 3196 ft | 157 kts | 5° |
| 2026-04-26 09:42 | 50.73390 | -1.48980 | 3190 ft | 157 kts | 353° |
| 2026-04-26 09:43 | 50.74458 | -1.49356 | 3201 ft | 159 kts | 351° |
| 2026-04-26 09:43 | 50.75537 | -1.49730 | 3205 ft | 158 kts | 351° |
| 2026-04-26 09:43 | 50.76626 | -1.50106 | 3065 ft | 162 kts | 351° |
| 2026-04-26 09:43 | 50.77697 | -1.50591 | 2911 ft | 161 kts | 336° |
| 2026-04-26 09:44 | 50.78658 | -1.51535 | 2711 ft | 167 kts | 329° |
| 2026-04-26 09:44 | 50.79633 | -1.52515 | 2401 ft | 168 kts | 329° |
| 2026-04-26 09:44 | 50.80576 | -1.53451 | 2345 ft | 155 kts | 329° |
| 2026-04-26 09:44 | 50.81507 | -1.54367 | 2110 ft | 157 kts | 329° |
| 2026-04-26 09:45 | 50.82390 | -1.55249 | 2097 ft | 144 kts | 329° |
| 2026-04-26 09:45 | 50.83100 | -1.56251 | 2102 ft | 136 kts | 302° |
| 2026-04-26 09:45 | 50.83295 | -1.57671 | 2087 ft | 129 kts | 262° |
| 2026-04-26 09:45 | 50.83127 | -1.58977 | 2068 ft | 117 kts | 252° |
| 2026-04-26 09:46 | 50.82832 | -1.60114 | 2068 ft | 108 kts | 225° |
| 2026-04-26 09:46 | 50.82361 | -1.60984 | 1950 ft | 109 kts | 221° |
| 2026-04-26 09:46 | 50.81846 | -1.61858 | 1884 ft | 110 kts | 220° |
| 2026-04-26 09:46 | 50.81496 | -1.62915 | 1792 ft | 113 kts | 247° |
| 2026-04-26 09:47 | 50.81279 | -1.64100 | 1748 ft | 111 kts | 249° |
| 2026-04-26 09:47 | 50.81114 | -1.65263 | 1746 ft | 105 kts | 255° |
| 2026-04-26 09:47 | 50.80982 | -1.66367 | 1738 ft | 100 kts | 255° |
| 2026-04-26 09:47 | 50.80853 | -1.67456 | 1743 ft | 105 kts | 255° |
| 2026-04-26 09:48 | 50.80719 | -1.68666 | 1689 ft | 117 kts | 253° |
| 2026-04-26 09:48 | 50.80505 | -1.69915 | 1644 ft | 120 kts | 251° |
| 2026-04-26 09:48 | 50.80271 | -1.71182 | 1598 ft | 119 kts | 251° |
| 2026-04-26 09:48 | 50.80051 | -1.72423 | 1543 ft | 118 kts | 250° |
| 2026-04-26 09:49 | 50.79860 | -1.73697 | 1444 ft | 118 kts | 251° |
| 2026-04-26 09:49 | 50.79656 | -1.74894 | 1305 ft | 109 kts | 247° |
| 2026-04-26 09:49 | 50.79422 | -1.76016 | 1087 ft | 106 kts | 246° |
| 2026-04-26 09:49 | 50.79213 | -1.77125 | 855 ft | 103 kts | 250° |
| 2026-04-26 09:50 | 50.79035 | -1.78157 | 685 ft | 95 kts | 251° |
| 2026-04-26 09:50 | 50.78861 | -1.79166 | 545 ft | 95 kts | 250° |
| 2026-04-26 09:50 | 50.78676 | -1.80155 | 382 ft | 90 kts | 255° |
| 2026-04-26 09:50 | 50.78535 | -1.81089 | 290 ft | 88 kts | 254° |
| 2026-04-26 09:51 | 50.78376 | -1.82049 | 172 ft | 90 kts | 251° |
| 2026-04-26 09:51 | 50.78229 | -1.82941 | 53 ft | 77 kts | 251° |
| 2026-04-26 09:51 | 50.78111 | -1.83625 | 39 ft | 54 kts | 255° |
| 2026-04-26 09:51 | 50.78086 | -1.83888 | 38 ft | 9 kts | 304° |
| 2026-04-26 09:52 | 50.78127 | -1.83924 | 39 ft | 8 kts | 342° |
| 2026-04-26 09:52 | 50.78271 | -1.83984 | 39 ft | 13 kts | 346° |
| 2026-04-26 09:52 | 50.78369 | -1.84024 | 39 ft | 17 kts | 346° |
| 2026-04-26 09:53 | 50.78441 | -1.84054 | 39 ft | 16 kts | 345° |
| 2026-04-26 09:53 | 50.78586 | -1.84114 | 39 ft | 13 kts | 344° |
| 2026-04-26 09:53 | 50.78629 | -1.84080 | 39 ft | 4 kts | 62° |
| 2026-04-26 09:53 | 50.78637 | -1.84055 | 39 ft | 6 kts | 63° |
| 2026-04-26 09:54 | 50.78638 | -1.83999 | 39 ft | 8 kts | 161° |
| 2026-04-26 09:54 | 50.78590 | -1.83987 | 39 ft | 0 kts | 169° |